sensor_id;sensor_type;location;lat;lon;timestamp;pressure;altitude;pressure_sealevel;temperature;humidity
9676;BME280;4876;42.656;23.292;2023-04-07T00:01:31;94042.78;;;2.60;53.53
9676;BME280;4876;42.656;23.292;2023-04-07T00:03:57;94036.56;;;2.61;53.93
9676;BME280;4876;42.656;23.292;2023-04-07T00:06:24;94042.00;;;2.65;53.75
9676;BME280;4876;42.656;23.292;2023-04-07T00:08:52;94039.69;;;2.58;53.60
9676;BME280;4876;42.656;23.292;2023-04-07T00:11:20;94048.56;;;2.42;53.46
9676;BME280;4876;42.656;23.292;2023-04-07T00:13:47;94041.81;;;2.51;54.04
9676;BME280;4876;42.656;23.292;2023-04-07T00:16:13;94046.31;;;2.30;54.03
9676;BME280;4876;42.656;23.292;2023-04-07T00:18:41;94043.44;;;2.32;54.46
9676;BME280;4876;42.656;23.292;2023-04-07T00:21:07;94035.84;;;2.51;54.19
9676;BME280;4876;42.656;23.292;2023-04-07T00:23:34;94044.19;;;2.42;54.30
9676;BME280;4876;42.656;23.292;2023-04-07T00:26:01;94037.59;;;2.60;53.77
9676;BME280;4876;42.656;23.292;2023-04-07T00:28:29;94035.81;;;2.61;52.98
9676;BME280;4876;42.656;23.292;2023-04-07T00:30:56;94037.88;;;2.54;52.90
9676;BME280;4876;42.656;23.292;2023-04-07T00:33:23;94036.06;;;2.54;52.93
9676;BME280;4876;42.656;23.292;2023-04-07T00:35:50;94036.59;;;2.51;52.91
9676;BME280;4876;42.656;23.292;2023-04-07T00:38:18;94033.00;;;2.42;53.11
9676;BME280;4876;42.656;23.292;2023-04-07T00:40:45;94029.59;;;2.52;53.26
9676;BME280;4876;42.656;23.292;2023-04-07T00:43:12;94040.25;;;2.50;53.59
9676;BME280;4876;42.656;23.292;2023-04-07T00:45:40;94039.25;;;2.41;53.76
9676;BME280;4876;42.656;23.292;2023-04-07T00:48:09;94045.00;;;2.28;54.09
9676;BME280;4876;42.656;23.292;2023-04-07T00:50:35;94042.06;;;2.55;53.84
9676;BME280;4876;42.656;23.292;2023-04-07T00:53:03;94031.63;;;2.60;53.55
9676;BME280;4876;42.656;23.292;2023-04-07T00:55:30;94037.69;;;2.45;53.85
9676;BME280;4876;42.656;23.292;2023-04-07T00:57:56;94040.28;;;2.40;53.71
9676;BME280;4876;42.656;23.292;2023-04-07T01:00:23;94040.28;;;2.45;53.61
9676;BME280;4876;42.656;23.292;2023-04-07T01:02:56;94033.44;;;2.59;53.63
9676;BME280;4876;42.656;23.292;2023-04-07T01:05:30;94033.72;;;2.63;53.54
9676;BME280;4876;42.656;23.292;2023-04-07T01:08:07;94031.69;;;2.55;53.61
9676;BME280;4876;42.656;23.292;2023-04-07T01:10:42;94038.16;;;2.52;53.71
9676;BME280;4876;42.656;23.292;2023-04-07T01:13:21;94032.56;;;2.25;53.91
9676;BME280;4876;42.656;23.292;2023-04-07T01:15:51;94006.16;;;2.07;53.99
9676;BME280;4876;42.656;23.292;2023-04-07T01:18:26;94023.94;;;2.45;54.69
9676;BME280;4876;42.656;23.292;2023-04-07T01:20:59;94018.44;;;2.56;53.98
9676;BME280;4876;42.656;23.292;2023-04-07T01:23:48;94024.66;;;2.55;53.79
9676;BME280;4876;42.656;23.292;2023-04-07T01:26:19;94029.28;;;2.63;53.46
9676;BME280;4876;42.656;23.292;2023-04-07T01:29:24;94019.19;;;2.57;53.58
9676;BME280;4876;42.656;23.292;2023-04-07T01:31:53;94021.50;;;2.63;53.46
9676;BME280;4876;42.656;23.292;2023-04-07T01:34:23;94015.25;;;2.69;53.24
9676;BME280;4876;42.656;23.292;2023-04-07T01:36:52;94020.72;;;2.63;53.30
9676;BME280;4876;42.656;23.292;2023-04-07T01:39:20;94017.34;;;2.62;53.49
9676;BME280;4876;42.656;23.292;2023-04-07T01:41:48;94023.91;;;2.55;53.63
9676;BME280;4876;42.656;23.292;2023-04-07T01:44:17;94011.41;;;2.62;53.18
9676;BME280;4876;42.656;23.292;2023-04-07T01:46:47;94003.28;;;2.74;53.26
9676;BME280;4876;42.656;23.292;2023-04-07T01:49:15;94002.22;;;2.80;52.95
9676;BME280;4876;42.656;23.292;2023-04-07T01:51:42;93998.56;;;2.81;52.62
9676;BME280;4876;42.656;23.292;2023-04-07T01:54:14;93999.63;;;2.80;51.98
9676;BME280;4876;42.656;23.292;2023-04-07T01:56:42;94000.16;;;2.72;52.12
9676;BME280;4876;42.656;23.292;2023-04-07T01:59:08;93996.28;;;2.74;51.93
9676;BME280;4876;42.656;23.292;2023-04-07T02:01:35;93994.44;;;2.75;51.94
9676;BME280;4876;42.656;23.292;2023-04-07T02:04:10;94006.13;;;2.72;51.91
9676;BME280;4876;42.656;23.292;2023-04-07T02:06:41;94004.41;;;2.52;51.96
9676;BME280;4876;42.656;23.292;2023-04-07T02:09:10;94001.88;;;2.42;53.29
9676;BME280;4876;42.656;23.292;2023-04-07T02:11:39;94005.50;;;2.41;54.01
9676;BME280;4876;42.656;23.292;2023-04-07T02:14:08;94000.25;;;2.61;53.81
9676;BME280;4876;42.656;23.292;2023-04-07T02:16:36;93997.28;;;2.73;53.50
9676;BME280;4876;42.656;23.292;2023-04-07T02:19:04;93994.66;;;2.78;52.59
9676;BME280;4876;42.656;23.292;2023-04-07T02:21:33;94007.88;;;2.87;51.73
9676;BME280;4876;42.656;23.292;2023-04-07T02:24:03;93999.53;;;2.90;51.47
9676;BME280;4876;42.656;23.292;2023-04-07T02:26:32;94003.16;;;2.94;51.47
9676;BME280;4876;42.656;23.292;2023-04-07T02:29:00;94002.59;;;2.97;51.62
9676;BME280;4876;42.656;23.292;2023-04-07T02:31:27;93997.94;;;2.99;50.81
9676;BME280;4876;42.656;23.292;2023-04-07T02:33:53;93996.34;;;3.03;51.32
9676;BME280;4876;42.656;23.292;2023-04-07T02:36:22;94006.19;;;3.06;51.14
9676;BME280;4876;42.656;23.292;2023-04-07T02:38:48;94007.00;;;3.02;51.28
9676;BME280;4876;42.656;23.292;2023-04-07T02:41:15;94003.56;;;3.11;51.25
9676;BME280;4876;42.656;23.292;2023-04-07T02:43:42;94009.69;;;3.26;50.58
9676;BME280;4876;42.656;23.292;2023-04-07T02:46:09;94005.28;;;3.26;50.39
9676;BME280;4876;42.656;23.292;2023-04-07T02:48:36;94002.63;;;3.31;50.60
9676;BME280;4876;42.656;23.292;2023-04-07T02:51:03;94004.25;;;3.22;50.94
9676;BME280;4876;42.656;23.292;2023-04-07T02:53:31;94012.38;;;3.10;50.86
9676;BME280;4876;42.656;23.292;2023-04-07T02:55:58;94014.25;;;3.05;51.09
9676;BME280;4876;42.656;23.292;2023-04-07T02:58:25;94014.47;;;3.13;51.39
9676;BME280;4876;42.656;23.292;2023-04-07T03:00:52;94018.28;;;3.21;50.96
9676;BME280;4876;42.656;23.292;2023-04-07T03:03:18;94015.91;;;3.30;50.88
9676;BME280;4876;42.656;23.292;2023-04-07T03:05:45;94021.91;;;3.25;50.99
9676;BME280;4876;42.656;23.292;2023-04-07T03:08:12;94027.25;;;3.39;50.32
9676;BME280;4876;42.656;23.292;2023-04-07T03:10:40;94023.75;;;3.24;50.96
9676;BME280;4876;42.656;23.292;2023-04-07T03:13:08;94023.03;;;3.48;51.04
9676;BME280;4876;42.656;23.292;2023-04-07T03:15:37;94021.66;;;3.21;50.72
9676;BME280;4876;42.656;23.292;2023-04-07T03:18:03;94021.16;;;3.19;51.22
9676;BME280;4876;42.656;23.292;2023-04-07T03:20:30;94025.13;;;3.12;51.28
9676;BME280;4876;42.656;23.292;2023-04-07T03:22:57;94018.91;;;3.08;51.55
9676;BME280;4876;42.656;23.292;2023-04-07T03:25:24;94018.97;;;2.97;51.72
9676;BME280;4876;42.656;23.292;2023-04-07T03:27:53;94017.41;;;2.96;52.29
9676;BME280;4876;42.656;23.292;2023-04-07T03:30:20;94014.50;;;3.03;52.03
9676;BME280;4876;42.656;23.292;2023-04-07T03:32:47;94018.91;;;3.08;52.10
9676;BME280;4876;42.656;23.292;2023-04-07T03:35:13;93987.25;;;3.06;52.07
9676;BME280;4876;42.656;23.292;2023-04-07T03:37:40;94017.59;;;3.10;51.72
9676;BME280;4876;42.656;23.292;2023-04-07T03:40:07;94005.34;;;3.16;51.44
9676;BME280;4876;42.656;23.292;2023-04-07T03:42:34;94011.13;;;3.08;51.89
9676;BME280;4876;42.656;23.292;2023-04-07T03:45:03;94012.53;;;2.90;51.96
9676;BME280;4876;42.656;23.292;2023-04-07T03:47:30;94009.63;;;2.96;52.45
9676;BME280;4876;42.656;23.292;2023-04-07T03:49:59;94005.75;;;2.94;52.01
9676;BME280;4876;42.656;23.292;2023-04-07T03:52:25;94015.16;;;2.85;51.98
9676;BME280;4876;42.656;23.292;2023-04-07T03:54:52;94020.38;;;2.80;52.72
9676;BME280;4876;42.656;23.292;2023-04-07T03:57:19;94009.34;;;2.98;52.61
9676;BME280;4876;42.656;23.292;2023-04-07T03:59:46;94015.38;;;2.93;52.36
9676;BME280;4876;42.656;23.292;2023-04-07T04:02:16;94016.59;;;3.06;52.00
9676;BME280;4876;42.656;23.292;2023-04-07T04:04:43;94020.00;;;3.02;52.12
9676;BME280;4876;42.656;23.292;2023-04-07T04:07:10;94021.38;;;2.89;52.33
9676;BME280;4876;42.656;23.292;2023-04-07T04:09:37;94019.69;;;3.08;52.29
9676;BME280;4876;42.656;23.292;2023-04-07T04:12:04;94026.88;;;3.16;51.88
9676;BME280;4876;42.656;23.292;2023-04-07T04:14:31;94027.91;;;3.20;51.44
9676;BME280;4876;42.656;23.292;2023-04-07T04:16:58;94025.94;;;3.07;51.95
9676;BME280;4876;42.656;23.292;2023-04-07T04:19:26;94020.31;;;3.29;51.93
9676;BME280;4876;42.656;23.292;2023-04-07T04:21:53;94022.88;;;3.34;52.12
9676;BME280;4876;42.656;23.292;2023-04-07T04:24:19;94027.84;;;3.31;51.36
9676;BME280;4876;42.656;23.292;2023-04-07T04:26:46;94035.25;;;3.47;51.34
9676;BME280;4876;42.656;23.292;2023-04-07T04:29:13;94035.75;;;3.10;51.84
9676;BME280;4876;42.656;23.292;2023-04-07T04:31:40;94042.47;;;3.16;52.20
9676;BME280;4876;42.656;23.292;2023-04-07T04:34:07;94035.81;;;3.05;52.12
9676;BME280;4876;42.656;23.292;2023-04-07T04:36:35;94036.06;;;3.04;52.34
9676;BME280;4876;42.656;23.292;2023-04-07T04:39:02;94037.34;;;3.11;52.21
9676;BME280;4876;42.656;23.292;2023-04-07T04:41:29;94047.22;;;3.04;52.33
9676;BME280;4876;42.656;23.292;2023-04-07T04:43:55;94039.72;;;3.42;52.30
9676;BME280;4876;42.656;23.292;2023-04-07T04:46:23;94040.19;;;3.49;51.89
9676;BME280;4876;42.656;23.292;2023-04-07T04:48:50;94043.97;;;3.62;51.68
9676;BME280;4876;42.656;23.292;2023-04-07T04:51:17;94052.34;;;3.54;51.49
9676;BME280;4876;42.656;23.292;2023-04-07T04:53:45;94048.88;;;3.68;51.54
9676;BME280;4876;42.656;23.292;2023-04-07T04:56:12;94048.22;;;3.82;50.70
9676;BME280;4876;42.656;23.292;2023-04-07T04:58:39;94049.50;;;3.84;50.59
9676;BME280;4876;42.656;23.292;2023-04-07T05:01:06;94045.03;;;3.90;50.47
9676;BME280;4876;42.656;23.292;2023-04-07T05:03:33;94043.97;;;3.91;50.00
9676;BME280;4876;42.656;23.292;2023-04-07T05:06:00;94053.88;;;3.89;49.27
9676;BME280;4876;42.656;23.292;2023-04-07T05:08:26;94068.06;;;4.30;49.34
9676;BME280;4876;42.656;23.292;2023-04-07T05:10:55;94060.78;;;4.51;48.58
9676;BME280;4876;42.656;23.292;2023-04-07T05:13:21;94069.75;;;4.64;47.49
9676;BME280;4876;42.656;23.292;2023-04-07T05:15:50;94069.50;;;4.42;48.85
9676;BME280;4876;42.656;23.292;2023-04-07T05:18:16;94073.25;;;4.54;48.56
9676;BME280;4876;42.656;23.292;2023-04-07T05:20:43;94069.31;;;4.57;49.14
9676;BME280;4876;42.656;23.292;2023-04-07T05:23:10;94078.28;;;5.31;48.30
9676;BME280;4876;42.656;23.292;2023-04-07T05:25:37;94080.78;;;5.74;46.92
9676;BME280;4876;42.656;23.292;2023-04-07T05:28:05;94081.09;;;5.54;47.78
9676;BME280;4876;42.656;23.292;2023-04-07T05:30:32;94089.06;;;5.76;47.16
9676;BME280;4876;42.656;23.292;2023-04-07T05:32:58;94091.63;;;5.81;46.75
9676;BME280;4876;42.656;23.292;2023-04-07T05:35:25;94084.59;;;5.63;45.94
9676;BME280;4876;42.656;23.292;2023-04-07T05:37:52;94087.50;;;5.24;47.37
9676;BME280;4876;42.656;23.292;2023-04-07T05:40:19;94090.41;;;5.03;52.90
9676;BME280;4876;42.656;23.292;2023-04-07T05:42:46;94086.78;;;4.99;54.23
9676;BME280;4876;42.656;23.292;2023-04-07T05:45:14;94084.00;;;4.91;54.83
9676;BME280;4876;42.656;23.292;2023-04-07T05:47:41;94082.13;;;4.96;55.09
9676;BME280;4876;42.656;23.292;2023-04-07T05:50:08;94085.88;;;5.09;54.71
9676;BME280;4876;42.656;23.292;2023-04-07T05:52:36;94085.69;;;4.81;54.20
9676;BME280;4876;42.656;23.292;2023-04-07T05:55:04;94092.38;;;4.45;54.11
9676;BME280;4876;42.656;23.292;2023-04-07T05:57:31;94091.44;;;4.07;56.61
9676;BME280;4876;42.656;23.292;2023-04-07T05:59:58;94094.16;;;4.49;56.36
9676;BME280;4876;42.656;23.292;2023-04-07T06:02:26;94084.22;;;4.75;55.50
9676;BME280;4876;42.656;23.292;2023-04-07T06:04:53;94084.78;;;4.72;55.93
9676;BME280;4876;42.656;23.292;2023-04-07T06:07:20;94091.03;;;4.71;55.55
9676;BME280;4876;42.656;23.292;2023-04-07T06:09:47;94086.47;;;4.82;56.31
9676;BME280;4876;42.656;23.292;2023-04-07T06:12:14;94083.09;;;4.81;52.30
9676;BME280;4876;42.656;23.292;2023-04-07T06:14:41;94088.28;;;5.24;53.65
9676;BME280;4876;42.656;23.292;2023-04-07T06:17:08;94091.50;;;5.91;48.87
9676;BME280;4876;42.656;23.292;2023-04-07T06:19:36;94101.94;;;6.52;47.87
9676;BME280;4876;42.656;23.292;2023-04-07T06:22:03;94097.78;;;6.51;44.80
9676;BME280;4876;42.656;23.292;2023-04-07T06:24:30;94090.53;;;6.75;44.82
9676;BME280;4876;42.656;23.292;2023-04-07T06:26:57;94089.53;;;6.43;44.43
9676;BME280;4876;42.656;23.292;2023-04-07T06:29:25;94070.78;;;6.69;43.99
9676;BME280;4876;42.656;23.292;2023-04-07T06:31:53;94080.94;;;6.84;44.46
9676;BME280;4876;42.656;23.292;2023-04-07T06:34:20;94077.91;;;7.05;44.72
9676;BME280;4876;42.656;23.292;2023-04-07T06:36:48;94093.50;;;7.10;43.90
9676;BME280;4876;42.656;23.292;2023-04-07T06:39:15;94081.19;;;7.10;43.12
9676;BME280;4876;42.656;23.292;2023-04-07T06:41:42;94085.31;;;7.25;43.09
9676;BME280;4876;42.656;23.292;2023-04-07T06:44:09;94092.72;;;6.95;44.06
9676;BME280;4876;42.656;23.292;2023-04-07T06:46:36;94085.75;;;7.05;43.52
9676;BME280;4876;42.656;23.292;2023-04-07T06:49:03;94073.31;;;7.24;42.49
9676;BME280;4876;42.656;23.292;2023-04-07T06:51:30;94073.28;;;6.88;43.44
9676;BME280;4876;42.656;23.292;2023-04-07T06:53:58;94094.13;;;7.29;43.61
9676;BME280;4876;42.656;23.292;2023-04-07T06:56:25;94083.03;;;7.10;43.50
9676;BME280;4876;42.656;23.292;2023-04-07T06:58:52;94092.50;;;7.55;43.44
9676;BME280;4876;42.656;23.292;2023-04-07T07:01:19;94088.47;;;7.94;42.87
9676;BME280;4876;42.656;23.292;2023-04-07T07:03:45;94092.38;;;8.05;41.86
9676;BME280;4876;42.656;23.292;2023-04-07T07:06:12;94091.69;;;7.91;41.56
9676;BME280;4876;42.656;23.292;2023-04-07T07:08:39;94092.53;;;7.78;42.29
9676;BME280;4876;42.656;23.292;2023-04-07T07:11:07;94096.44;;;8.12;41.83
9676;BME280;4876;42.656;23.292;2023-04-07T07:13:34;94105.47;;;8.28;42.02
9676;BME280;4876;42.656;23.292;2023-04-07T07:16:01;94106.03;;;8.16;41.11
9676;BME280;4876;42.656;23.292;2023-04-07T07:18:28;94107.41;;;8.14;41.19
9676;BME280;4876;42.656;23.292;2023-04-07T07:20:58;94099.66;;;8.08;40.82
9676;BME280;4876;42.656;23.292;2023-04-07T07:23:25;94108.56;;;8.30;41.27
9676;BME280;4876;42.656;23.292;2023-04-07T07:25:52;94111.16;;;8.52;41.45
9676;BME280;4876;42.656;23.292;2023-04-07T07:28:20;94111.13;;;8.21;41.69
9676;BME280;4876;42.656;23.292;2023-04-07T07:30:48;94110.09;;;8.31;41.33
9676;BME280;4876;42.656;23.292;2023-04-07T07:33:15;94119.47;;;8.23;41.22
9676;BME280;4876;42.656;23.292;2023-04-07T07:35:42;94114.41;;;8.27;41.90
9676;BME280;4876;42.656;23.292;2023-04-07T07:38:10;94118.34;;;8.16;41.85
9676;BME280;4876;42.656;23.292;2023-04-07T07:40:37;94114.88;;;8.06;41.61
9676;BME280;4876;42.656;23.292;2023-04-07T07:43:03;94124.78;;;8.09;42.17
9676;BME280;4876;42.656;23.292;2023-04-07T07:45:36;94125.00;;;7.77;42.15
9676;BME280;4876;42.656;23.292;2023-04-07T07:48:02;94126.56;;;7.78;42.49
9676;BME280;4876;42.656;23.292;2023-04-07T07:50:29;94131.78;;;8.00;42.24
9676;BME280;4876;42.656;23.292;2023-04-07T07:52:56;94129.41;;;8.13;42.15
9676;BME280;4876;42.656;23.292;2023-04-07T07:55:23;94131.06;;;8.31;41.07
9676;BME280;4876;42.656;23.292;2023-04-07T07:57:50;94126.78;;;8.35;41.21
9676;BME280;4876;42.656;23.292;2023-04-07T08:00:17;94126.19;;;8.38;41.12
9676;BME280;4876;42.656;23.292;2023-04-07T08:02:46;94127.03;;;8.47;41.16
9676;BME280;4876;42.656;23.292;2023-04-07T08:05:12;94118.16;;;8.34;41.86
9676;BME280;4876;42.656;23.292;2023-04-07T08:07:39;94121.91;;;8.42;41.32
9676;BME280;4876;42.656;23.292;2023-04-07T08:10:08;94125.47;;;8.46;41.39
9676;BME280;4876;42.656;23.292;2023-04-07T08:12:35;94127.44;;;8.41;40.87
9676;BME280;4876;42.656;23.292;2023-04-07T08:15:01;94128.31;;;8.58;40.98
9676;BME280;4876;42.656;23.292;2023-04-07T08:17:28;94135.97;;;8.86;39.71
9676;BME280;4876;42.656;23.292;2023-04-07T08:19:56;94137.84;;;8.94;40.72
9676;BME280;4876;42.656;23.292;2023-04-07T08:22:23;94138.28;;;8.87;40.08
9676;BME280;4876;42.656;23.292;2023-04-07T08:24:50;94135.91;;;9.08;39.56
9676;BME280;4876;42.656;23.292;2023-04-07T08:27:17;94133.31;;;9.26;39.90
9676;BME280;4876;42.656;23.292;2023-04-07T08:29:45;94139.13;;;9.05;40.97
9676;BME280;4876;42.656;23.292;2023-04-07T08:32:11;94130.06;;;8.72;40.46
9676;BME280;4876;42.656;23.292;2023-04-07T08:34:38;94135.31;;;8.41;41.28
9676;BME280;4876;42.656;23.292;2023-04-07T08:37:07;94140.56;;;8.72;41.23
9676;BME280;4876;42.656;23.292;2023-04-07T08:39:33;94127.31;;;8.46;41.09
9676;BME280;4876;42.656;23.292;2023-04-07T08:42:01;94124.97;;;8.44;41.71
9676;BME280;4876;42.656;23.292;2023-04-07T08:44:28;94126.59;;;8.54;41.54
9676;BME280;4876;42.656;23.292;2023-04-07T08:46:56;94127.72;;;9.01;41.99
9676;BME280;4876;42.656;23.292;2023-04-07T08:49:27;94130.03;;;9.11;40.96
9676;BME280;4876;42.656;23.292;2023-04-07T08:51:55;94114.16;;;9.08;39.18
9676;BME280;4876;42.656;23.292;2023-04-07T08:54:25;94132.75;;;8.89;39.72
9676;BME280;4876;42.656;23.292;2023-04-07T08:56:51;94133.44;;;9.12;40.11
9676;BME280;4876;42.656;23.292;2023-04-07T08:59:18;94145.91;;;9.06;40.41
9676;BME280;4876;42.656;23.292;2023-04-07T09:01:51;94141.88;;;9.00;40.09
9676;BME280;4876;42.656;23.292;2023-04-07T09:04:18;94125.53;;;9.03;39.10
9676;BME280;4876;42.656;23.292;2023-04-07T09:06:48;94122.78;;;9.08;40.10
9676;BME280;4876;42.656;23.292;2023-04-07T09:09:15;94122.66;;;9.22;40.68
9676;BME280;4876;42.656;23.292;2023-04-07T09:11:43;94123.59;;;9.43;39.57
9676;BME280;4876;42.656;23.292;2023-04-07T09:14:10;94130.56;;;9.48;39.53
9676;BME280;4876;42.656;23.292;2023-04-07T09:16:37;94129.50;;;9.66;39.21
9676;BME280;4876;42.656;23.292;2023-04-07T09:19:04;94121.16;;;9.56;38.94
9676;BME280;4876;42.656;23.292;2023-04-07T09:21:46;94124.72;;;9.51;39.52
9676;BME280;4876;42.656;23.292;2023-04-07T09:24:21;94126.22;;;9.43;38.52
9676;BME280;4876;42.656;23.292;2023-04-07T09:26:50;94118.31;;;9.09;39.75
9676;BME280;4876;42.656;23.292;2023-04-07T09:29:20;94138.44;;;9.39;39.35
9676;BME280;4876;42.656;23.292;2023-04-07T09:31:48;94130.13;;;9.46;39.10
9676;BME280;4876;42.656;23.292;2023-04-07T09:34:27;94135.31;;;9.37;39.91
9676;BME280;4876;42.656;23.292;2023-04-07T09:36:54;94150.50;;;9.66;39.36
9676;BME280;4876;42.656;23.292;2023-04-07T09:39:21;94146.16;;;9.62;39.03
9676;BME280;4876;42.656;23.292;2023-04-07T09:41:50;94121.06;;;9.12;40.15
9676;BME280;4876;42.656;23.292;2023-04-07T09:44:17;94147.50;;;9.25;40.67
9676;BME280;4876;42.656;23.292;2023-04-07T09:46:48;94107.22;;;9.21;40.02
9676;BME280;4876;42.656;23.292;2023-04-07T09:49:15;94132.25;;;9.27;40.53
9676;BME280;4876;42.656;23.292;2023-04-07T09:51:52;94151.16;;;9.06;41.53
9676;BME280;4876;42.656;23.292;2023-04-07T09:54:31;94155.34;;;9.16;40.43
9676;BME280;4876;42.656;23.292;2023-04-07T09:57:01;94131.75;;;9.07;40.11
9676;BME280;4876;42.656;23.292;2023-04-07T09:59:29;94155.19;;;9.12;40.73
9676;BME280;4876;42.656;23.292;2023-04-07T10:01:57;94143.84;;;9.43;40.47
9676;BME280;4876;42.656;23.292;2023-04-07T10:04:24;94140.19;;;9.70;40.16
9676;BME280;4876;42.656;23.292;2023-04-07T10:06:52;94139.56;;;9.64;39.76
9676;BME280;4876;42.656;23.292;2023-04-07T10:09:22;94122.84;;;9.60;39.87
9676;BME280;4876;42.656;23.292;2023-04-07T10:11:50;94149.28;;;10.07;39.92
9676;BME280;4876;42.656;23.292;2023-04-07T10:14:21;94148.66;;;9.67;39.94
9676;BME280;4876;42.656;23.292;2023-04-07T10:16:48;94144.03;;;9.64;40.50
9676;BME280;4876;42.656;23.292;2023-04-07T10:19:18;94136.63;;;9.57;40.28
9676;BME280;4876;42.656;23.292;2023-04-07T10:21:49;94145.38;;;9.35;39.98
9676;BME280;4876;42.656;23.292;2023-04-07T10:24:26;94143.34;;;9.24;40.02
9676;BME280;4876;42.656;23.292;2023-04-07T10:26:59;94144.53;;;9.09;39.85
9676;BME280;4876;42.656;23.292;2023-04-07T10:29:34;94150.56;;;9.09;40.27
9676;BME280;4876;42.656;23.292;2023-04-07T10:32:03;94144.91;;;9.33;40.16
9676;BME280;4876;42.656;23.292;2023-04-07T10:34:55;94144.47;;;9.75;39.84
9676;BME280;4876;42.656;23.292;2023-04-07T10:37:23;94161.59;;;9.55;39.71
9676;BME280;4876;42.656;23.292;2023-04-07T10:39:52;94143.81;;;9.26;40.48
9676;BME280;4876;42.656;23.292;2023-04-07T10:42:47;94153.88;;;9.32;39.95
9676;BME280;4876;42.656;23.292;2023-04-07T10:45:15;94153.09;;;9.49;40.43
9676;BME280;4876;42.656;23.292;2023-04-07T10:48:12;94148.03;;;9.44;39.81
9676;BME280;4876;42.656;23.292;2023-04-07T10:50:39;94161.13;;;9.35;41.58
9676;BME280;4876;42.656;23.292;2023-04-07T10:53:07;94164.88;;;9.03;42.39
9676;BME280;4876;42.656;23.292;2023-04-07T10:55:37;94169.19;;;8.15;45.05
9676;BME280;4876;42.656;23.292;2023-04-07T10:58:36;94145.59;;;8.15;45.23
9676;BME280;4876;42.656;23.292;2023-04-07T11:01:57;94165.13;;;8.08;44.85
9676;BME280;4876;42.656;23.292;2023-04-07T11:04:45;94170.72;;;8.16;45.03
9676;BME280;4876;42.656;23.292;2023-04-07T11:10:13;94167.84;;;8.26;46.53
9676;BME280;4876;42.656;23.292;2023-04-07T11:12:41;94175.72;;;8.26;45.69
9676;BME280;4876;42.656;23.292;2023-04-07T11:15:22;94161.56;;;8.27;45.97
9676;BME280;4876;42.656;23.292;2023-04-07T11:18:08;94169.28;;;8.32;46.16
9676;BME280;4876;42.656;23.292;2023-04-07T11:20:46;94166.91;;;8.44;45.64
9676;BME280;4876;42.656;23.292;2023-04-07T11:23:23;94165.38;;;8.74;45.17
9676;BME280;4876;42.656;23.292;2023-04-07T11:26:08;94166.31;;;8.47;46.06
9676;BME280;4876;42.656;23.292;2023-04-07T11:29:14;94173.88;;;8.49;46.02
9676;BME280;4876;42.656;23.292;2023-04-07T11:31:46;94176.09;;;8.33;45.97
9676;BME280;4876;42.656;23.292;2023-04-07T11:34:15;94177.47;;;8.08;46.44
9676;BME280;4876;42.656;23.292;2023-04-07T11:36:42;94174.22;;;8.11;46.67
9676;BME280;4876;42.656;23.292;2023-04-07T11:39:20;94175.59;;;8.31;46.68
9676;BME280;4876;42.656;23.292;2023-04-07T11:41:49;94180.25;;;8.56;46.54
9676;BME280;4876;42.656;23.292;2023-04-07T11:44:17;94165.72;;;8.05;46.40
9676;BME280;4876;42.656;23.292;2023-04-07T11:47:10;94188.34;;;8.01;46.70
9676;BME280;4876;42.656;23.292;2023-04-07T11:49:49;94167.63;;;8.14;46.48
9676;BME280;4876;42.656;23.292;2023-04-07T11:52:22;94181.13;;;8.29;46.81
9676;BME280;4876;42.656;23.292;2023-04-07T11:54:52;94174.34;;;8.51;46.14
9676;BME280;4876;42.656;23.292;2023-04-07T11:57:25;94163.59;;;8.52;46.67
9676;BME280;4876;42.656;23.292;2023-04-07T12:00:17;94183.47;;;8.53;47.09
9676;BME280;4876;42.656;23.292;2023-04-07T12:02:46;94175.72;;;8.48;47.56
9676;BME280;4876;42.656;23.292;2023-04-07T12:05:54;94178.41;;;8.34;47.50
9676;BME280;4876;42.656;23.292;2023-04-07T12:08:35;94174.06;;;8.52;47.31
9676;BME280;4876;42.656;23.292;2023-04-07T12:11:02;94167.75;;;8.53;47.40
9676;BME280;4876;42.656;23.292;2023-04-07T12:13:30;94146.69;;;8.67;47.34
9676;BME280;4876;42.656;23.292;2023-04-07T12:15:57;94177.50;;;8.93;46.88
9676;BME280;4876;42.656;23.292;2023-04-07T12:18:26;94162.94;;;8.47;47.00
9676;BME280;4876;42.656;23.292;2023-04-07T12:20:54;94175.75;;;8.79;47.65
9676;BME280;4876;42.656;23.292;2023-04-07T12:23:23;94161.94;;;8.96;45.47
9676;BME280;4876;42.656;23.292;2023-04-07T12:25:50;94171.66;;;8.96;45.83
9676;BME280;4876;42.656;23.292;2023-04-07T12:28:17;94183.56;;;8.71;46.54
9676;BME280;4876;42.656;23.292;2023-04-07T12:30:43;94180.84;;;8.31;46.72
9676;BME280;4876;42.656;23.292;2023-04-07T12:33:10;94178.81;;;8.28;47.46
9676;BME280;4876;42.656;23.292;2023-04-07T12:35:37;94169.19;;;8.37;47.42
9676;BME280;4876;42.656;23.292;2023-04-07T12:38:06;94174.78;;;8.44;48.25
9676;BME280;4876;42.656;23.292;2023-04-07T12:40:33;94175.84;;;7.98;47.57
9676;BME280;4876;42.656;23.292;2023-04-07T12:43:00;94199.03;;;7.91;47.69
9676;BME280;4876;42.656;23.292;2023-04-07T12:45:28;94190.88;;;7.93;48.38
9676;BME280;4876;42.656;23.292;2023-04-07T12:47:55;94170.38;;;8.08;48.31
9676;BME280;4876;42.656;23.292;2023-04-07T12:50:22;94160.22;;;7.93;47.71
9676;BME280;4876;42.656;23.292;2023-04-07T12:52:49;94173.88;;;8.04;47.83
9676;BME280;4876;42.656;23.292;2023-04-07T12:55:19;94169.53;;;8.22;47.49
9676;BME280;4876;42.656;23.292;2023-04-07T12:57:46;94175.25;;;8.46;47.04
9676;BME280;4876;42.656;23.292;2023-04-07T13:00:13;94180.31;;;8.43;46.92
9676;BME280;4876;42.656;23.292;2023-04-07T13:02:40;94183.03;;;8.15;47.55
9676;BME280;4876;42.656;23.292;2023-04-07T13:05:08;94186.75;;;8.36;47.33
9676;BME280;4876;42.656;23.292;2023-04-07T13:07:35;94179.66;;;8.15;47.90
9676;BME280;4876;42.656;23.292;2023-04-07T13:10:03;94178.75;;;8.19;48.11
9676;BME280;4876;42.656;23.292;2023-04-07T13:12:32;94174.78;;;8.22;47.44
9676;BME280;4876;42.656;23.292;2023-04-07T13:14:59;94192.56;;;8.33;48.11
9676;BME280;4876;42.656;23.292;2023-04-07T13:17:26;94161.03;;;8.16;47.61
9676;BME280;4876;42.656;23.292;2023-04-07T13:19:54;94183.28;;;8.27;47.46
9676;BME280;4876;42.656;23.292;2023-04-07T13:22:21;94186.19;;;8.26;48.00
9676;BME280;4876;42.656;23.292;2023-04-07T13:24:48;94193.75;;;7.82;49.02
9676;BME280;4876;42.656;23.292;2023-04-07T13:27:15;94196.41;;;7.91;48.91
9676;BME280;4876;42.656;23.292;2023-04-07T13:29:43;94200.94;;;7.77;49.65
9676;BME280;4876;42.656;23.292;2023-04-07T13:32:10;94171.47;;;7.57;49.93
9676;BME280;4876;42.656;23.292;2023-04-07T13:34:39;94197.22;;;7.78;49.73
9676;BME280;4876;42.656;23.292;2023-04-07T13:37:06;94195.78;;;7.72;50.32